Time;durP1;ratioP1;P1;durP2;ratioP2;P2;SDS_P1;SDS_P2;PMS_P1;PMS_P2;Temp;Humidity;BMP_temperature;BMP_pressure;BME280_temperature;BME280_humidity;BME280_pressure;Samples;Min_cycle;Max_cycle;Signal;HPM_P1;HPM_P2
2022/03/21 00:02:02;;;;;;;;;;;;;;;28.09;15.22;102649.47;5000785;28;790;-26
2022/03/21 00:04:28;;;;;;;;;;;;;;;28.37;15.24;102654.19;5009892;28;794;-25
2022/03/21 00:06:53;;;;;;;;;;;;;;;28.35;14.93;102653.47;5000727;28;804;-26
2022/03/21 00:09:18;;;;;;;;;;;;;;;28.42;15.09;102642.91;5000185;28;821;-26
2022/03/21 00:11:44;;;;;;;;;;;;;;;28.42;14.77;102643.78;5000495;28;854;-27
2022/03/21 00:14:12;;;;;;;;;;;;;;;28.44;14.93;102647.19;5000300;28;1898;-27
2022/03/21 00:16:41;;;;;;;;;;;;;;;28.48;14.76;102645.03;5010519;28;866;-26
2022/03/21 00:19:07;;;;;;;;;;;;;;;28.47;14.95;102643.31;5006109;28;892;-29
2022/03/21 00:21:34;;;;;;;;;;;;;;;28.47;14.91;102638.78;5000718;28;798;-26
2022/03/21 00:24:00;;;;;;;;;;;;;;;28.65;14.60;102634.44;5003866;28;1045;-27
2022/03/21 00:26:25;;;;;;;;;;;;;;;28.42;15.01;102641.06;5018877;28;898;-27
2022/03/21 00:28:51;;;;;;;;;;;;;;;28.65;14.67;102638.00;5012178;28;801;-27
2022/03/21 00:31:16;;;;;;;;;;;;;;;28.55;14.88;102635.31;4999928;28;840;-27
2022/03/21 00:33:42;;;;;;;;;;;;;;;28.67;14.57;102630.59;4999978;28;1902;-27
2022/03/21 00:36:08;;;;;;;;;;;;;;;28.33;14.77;102633.78;4999664;28;1333;-28
2022/03/21 00:38:35;;;;;;;;;;;;;;;28.67;14.52;102632.44;4999559;28;798;-27
2022/03/21 00:41:00;;;;;;;;;;;;;;;28.57;14.63;102624.34;5005800;28;1285;-26
2022/03/21 00:43:26;;;;;;;;;;;;;;;28.58;14.58;102626.91;5004270;28;808;-25
2022/03/21 00:45:52;;;;;;;;;;;;;;;28.64;14.55;102620.06;4999718;28;794;-26
2022/03/21 00:48:18;;;;;;;;;;;;;;;28.81;14.38;102625.69;5000811;28;825;-26
2022/03/21 00:50:43;;;;;;;;;;;;;;;28.84;14.17;102623.50;5009061;28;1093;-25
2022/03/21 00:53:09;;;;;;;;;;;;;;;28.33;14.61;102615.72;5009409;28;1973;-26
2022/03/21 00:55:34;;;;;;;;;;;;;;;28.28;14.57;102615.25;5008031;28;1200;-29
2022/03/21 00:57:59;;;;;;;;;;;;;;;28.48;14.45;102604.41;5011440;28;1227;-30
2022/03/21 01:00:25;;;;;;;;;;;;;;;28.75;14.61;102610.00;5008888;28;1243;-27
2022/03/21 01:02:51;;;;;;;;;;;;;;;28.69;14.45;102612.34;5011850;28;1167;-27
2022/03/21 01:05:16;;;;;;;;;;;;;;;28.57;14.62;102621.63;5007503;28;1151;-28
2022/03/21 01:07:42;;;;;;;;;;;;;;;28.50;14.62;102609.69;5011623;28;1306;-28
2022/03/21 01:10:08;;;;;;;;;;;;;;;28.70;14.36;102614.03;5009534;28;1100;-29
2022/03/21 01:12:33;;;;;;;;;;;;;;;28.55;14.71;102608.25;5008651;28;1898;-26
2022/03/21 01:14:59;;;;;;;;;;;;;;;28.72;14.28;102613.88;5011306;28;1309;-28
2022/03/21 01:17:24;;;;;;;;;;;;;;;28.67;14.40;102614.34;5011044;28;1373;-27
2022/03/21 01:19:49;;;;;;;;;;;;;;;28.78;14.35;102601.63;5003871;28;1429;-26
2022/03/21 01:22:15;;;;;;;;;;;;;;;28.89;14.45;102614.09;5009235;28;1258;-29
2022/03/21 01:24:40;;;;;;;;;;;;;;;28.73;14.57;102605.63;5010080;28;1251;-27
2022/03/21 01:27:06;;;;;;;;;;;;;;;28.73;14.60;102605.63;5011924;28;1092;-26
2022/03/21 01:29:31;;;;;;;;;;;;;;;28.76;14.44;102606.31;5012199;28;1270;-28
2022/03/21 01:31:56;;;;;;;;;;;;;;;28.32;14.79;102610.41;5006552;28;1271;-26
2022/03/21 01:34:22;;;;;;;;;;;;;;;28.42;14.60;102608.59;5002883;28;1967;-27
2022/03/21 01:36:47;;;;;;;;;;;;;;;28.89;14.40;102605.97;5010428;28;1322;-27
2022/03/21 01:39:12;;;;;;;;;;;;;;;28.73;14.55;102607.47;5010066;28;1250;-26
2022/03/21 01:41:37;;;;;;;;;;;;;;;28.56;14.56;102609.13;5011821;28;1186;-28
2022/03/21 01:44:04;;;;;;;;;;;;;;;28.56;14.79;102607.25;5008021;28;1239;-28
2022/03/21 01:46:29;;;;;;;;;;;;;;;28.54;14.48;102603.84;5004499;28;1310;-26
2022/03/21 01:48:55;;;;;;;;;;;;;;;28.39;14.61;102606.16;5011601;28;1259;-28
2022/03/21 01:51:20;;;;;;;;;;;;;;;28.34;14.76;102598.47;5006922;28;1270;-30
2022/03/21 01:56:30;;;;;;;;;;;;;;;28.71;14.32;102598.66;5008766;28;1104;-28
2022/03/21 01:58:56;;;;;;;;;;;;;;;28.51;14.51;102597.88;5010600;28;1005;-27
2022/03/21 02:01:21;;;;;;;;;;;;;;;28.66;14.68;102593.66;5015298;28;1551;-28
2022/03/21 02:03:47;;;;;;;;;;;;;;;28.54;14.45;102600.28;5006681;28;1211;-29
2022/03/21 02:06:12;;;;;;;;;;;;;;;28.51;14.41;102597.88;5008973;28;1254;-26
2022/03/21 02:08:37;;;;;;;;;;;;;;;28.58;14.46;102589.00;5008685;28;1262;-30
2022/03/21 02:11:03;;;;;;;;;;;;;;;28.83;14.46;102594.72;5006170;28;1056;-27
2022/03/21 02:13:28;;;;;;;;;;;;;;;28.71;14.36;102590.53;5009885;28;2003;-26
2022/03/21 02:15:53;;;;;;;;;;;;;;;28.67;14.48;102584.56;5010033;28;1056;-27
2022/03/21 02:18:19;;;;;;;;;;;;;;;28.82;14.60;102589.47;5004468;28;1049;-27
2022/03/21 02:20:44;;;;;;;;;;;;;;;28.65;14.38;102585.69;5015515;28;790;-29
2022/03/21 02:23:11;;;;;;;;;;;;;;;28.31;14.54;102584.38;5015065;28;826;-27
2022/03/21 02:25:41;;;;;;;;;;;;;;;28.33;14.84;102588.66;4999198;28;864;-28
2022/03/21 02:28:07;;;;;;;;;;;;;;;28.45;14.70;102585.75;4998301;28;790;-27
2022/03/21 02:30:33;;;;;;;;;;;;;;;28.47;14.52;102589.19;4997828;28;885;-28
2022/03/21 02:32:59;;;;;;;;;;;;;;;28.48;14.63;102580.91;4998839;28;1898;-26
2022/03/21 02:35:25;;;;;;;;;;;;;;;28.66;14.23;102577.41;5009272;28;1113;-26
2022/03/21 02:37:50;;;;;;;;;;;;;;;28.56;14.31;102588.28;5006518;28;739;-30
2022/03/21 02:40:16;;;;;;;;;;;;;;;28.62;14.50;102588.69;4997448;28;845;-27
2022/03/21 02:42:41;;;;;;;;;;;;;;;28.79;14.20;102587.94;4997647;28;761;-26
2022/03/21 02:45:07;;;;;;;;;;;;;;;28.72;14.38;102590.38;4998132;28;872;-28
2022/03/21 02:47:32;;;;;;;;;;;;;;;28.85;14.35;102591.88;4997542;28;753;-27
2022/03/21 02:49:58;;;;;;;;;;;;;;;28.79;14.38;102596.06;5003586;28;1015;-29
2022/03/21 02:52:23;;;;;;;;;;;;;;;28.83;14.29;102602.00;4997139;28;1966;-28
2022/03/21 02:54:48;;;;;;;;;;;;;;;28.57;14.41;102595.44;4996612;28;1027;-26
2022/03/21 02:57:14;;;;;;;;;;;;;;;28.21;14.87;102595.22;4997315;28;750;-26
2022/03/21 02:59:39;;;;;;;;;;;;;;;28.65;14.34;102589.25;4997673;28;842;-29
2022/03/21 03:02:07;;;;;;;;;;;;;;;28.66;14.44;102587.41;5003117;28;850;-27
2022/03/21 03:04:32;;;;;;;;;;;;;;;28.66;14.18;102590.13;5004885;28;988;-29
2022/03/21 03:06:57;;;;;;;;;;;;;;;28.64;14.43;102589.41;4997870;28;953;-27
2022/03/21 03:09:23;;;;;;;;;;;;;;;28.71;14.36;102594.06;4997297;28;833;-27
2022/03/21 03:11:48;;;;;;;;;;;;;;;28.87;14.04;102586.31;4997284;28;765;-25
2022/03/21 03:14:13;;;;;;;;;;;;;;;28.88;14.02;102578.03;5004324;28;1918;-28
2022/03/21 03:16:39;;;;;;;;;;;;;;;28.79;14.03;102590.63;4997789;28;794;-26
2022/03/21 03:19:04;;;;;;;;;;;;;;;28.78;14.16;102590.78;5009127;28;954;-27
2022/03/21 03:21:49;;;;;;;;;;;;;;;28.85;13.91;102586.47;4998259;28;892;-26
2022/03/21 03:24:15;;;;;;;;;;;;;;;28.89;14.06;102587.00;5010388;28;1297;-32
2022/03/21 03:26:40;;;;;;;;;;;;;;;28.70;14.10;102586.09;5011246;28;866;-29
2022/03/21 03:29:05;;;;;;;;;;;;;;;28.29;14.22;102579.09;4996935;28;813;-28
2022/03/21 03:31:31;;;;;;;;;;;;;;;28.39;14.41;102581.81;4996942;28;801;-28
2022/03/21 03:33:56;;;;;;;;;;;;;;;28.86;13.79;102582.75;5002666;28;1910;-26
2022/03/21 03:36:21;;;;;;;;;;;;;;;28.18;14.57;102576.53;5015836;28;735;-28
2022/03/21 03:38:47;;;;;;;;;;;;;;;28.03;14.36;102582.41;5015702;28;825;-30
2022/03/21 03:41:12;;;;;;;;;;;;;;;27.91;14.83;102589.81;5003739;28;988;-28
2022/03/21 03:43:38;;;;;;;;;;;;;;;27.60;14.78;102590.81;4997381;28;784;-28
2022/03/21 03:46:03;;;;;;;;;;;;;;;27.35;15.21;102586.78;4997001;28;775;-26
2022/03/21 03:48:29;;;;;;;;;;;;;;;27.34;15.34;102585.94;5001109;28;1390;-29
2022/03/21 03:50:55;;;;;;;;;;;;;;;27.19;15.04;102582.81;4998907;28;818;-25
2022/03/21 03:53:20;;;;;;;;;;;;;;;27.18;15.49;102583.78;5005830;28;1938;-26
2022/03/21 03:55:45;;;;;;;;;;;;;;;27.24;15.30;102585.09;4997338;28;1139;-27
2022/03/21 03:58:11;;;;;;;;;;;;;;;27.06;15.23;102585.72;4996875;28;881;-25
2022/03/21 04:00:36;;;;;;;;;;;;;;;27.57;15.21;102592.94;4996860;28;834;-25
2022/03/21 04:05:45;;;;;;;;;;;;;;;27.86;14.91;102584.03;5011536;28;837;-27
2022/03/21 04:08:11;;;;;;;;;;;;;;;27.95;14.71;102585.84;5002334;28;797;-29
2022/03/21 04:10:36;;;;;;;;;;;;;;;28.03;14.48;102584.28;5000777;28;862;-29
2022/03/21 04:13:01;;;;;;;;;;;;;;;27.87;14.69;102585.72;5000273;28;1898;-27
2022/03/21 04:15:27;;;;;;;;;;;;;;;28.04;14.61;102588.69;5000437;28;830;-25
2022/03/21 04:17:53;;;;;;;;;;;;;;;28.33;14.45;102591.34;5004378;28;1065;-27
2022/03/21 04:20:19;;;;;;;;;;;;;;;28.33;14.53;102583.25;5006828;28;814;-26
2022/03/21 04:22:44;;;;;;;;;;;;;;;28.33;14.33;102585.09;5000434;28;759;-26
2022/03/21 04:25:13;;;;;;;;;;;;;;;28.55;14.33;102593.84;4999825;28;842;-30
2022/03/21 04:27:38;;;;;;;;;;;;;;;28.55;14.46;102583.88;5000230;28;820;-27
2022/03/21 04:30:04;;;;;;;;;;;;;;;28.39;14.38;102589.94;5000710;28;778;-31
2022/03/21 04:32:30;;;;;;;;;;;;;;;28.23;14.86;102585.94;5010492;28;1898;-28
2022/03/21 04:34:55;;;;;;;;;;;;;;;28.25;14.74;102591.22;5009476;28;1000;-25
2022/03/21 04:37:20;;;;;;;;;;;;;;;27.99;14.79;102592.66;4999948;28;936;-28
2022/03/21 04:39:45;;;;;;;;;;;;;;;28.24;14.78;102584.09;4999840;28;798;-25
2022/03/21 04:42:11;;;;;;;;;;;;;;;26.61;12.40;102584.28;5000027;28;774;-32
2022/03/21 04:44:36;;;;;;;;;;;;;;;25.84;12.63;102582.59;5007455;28;865;-26
2022/03/21 04:47:01;;;;;;;;;;;;;;;25.45;13.36;102583.09;4999570;28;746;-27
2022/03/21 04:49:27;;;;;;;;;;;;;;;24.99;13.73;102588.56;5008903;28;1104;-27
2022/03/21 04:51:52;;;;;;;;;;;;;;;24.85;13.13;102586.09;4999624;28;854;-26
2022/03/21 04:54:18;;;;;;;;;;;;;;;24.85;13.07;102583.41;5000983;28;1915;-30
2022/03/21 04:56:43;;;;;;;;;;;;;;;24.62;13.60;102580.72;5012754;28;1189;-27
2022/03/21 04:59:09;;;;;;;;;;;;;;;24.42;14.00;102577.75;5001328;28;1089;-30
2022/03/21 05:01:35;;;;;;;;;;;;;;;24.72;13.88;102580.84;5004076;28;758;-29
2022/03/21 05:04:00;;;;;;;;;;;;;;;24.49;13.42;102578.16;5017764;28;853;-26
2022/03/21 05:06:25;;;;;;;;;;;;;;;24.48;14.39;102574.59;5001561;28;1415;-27
2022/03/21 05:08:50;;;;;;;;;;;;;;;21.62;12.90;102582.13;5011247;28;762;-27
2022/03/21 05:11:16;;;;;;;;;;;;;;;21.06;13.43;102575.00;5001687;28;981;-27
2022/03/21 05:13:41;;;;;;;;;;;;;;;23.03;13.01;102582.56;4999271;28;1966;-26
2022/03/21 05:16:06;;;;;;;;;;;;;;;24.16;13.12;102577.91;5014072;28;801;-30
2022/03/21 05:18:34;;;;;;;;;;;;;;;24.14;16.28;102574.50;5017135;28;813;-27
2022/03/21 05:21:03;;;;;;;;;;;;;;;24.19;16.35;102581.25;5002615;28;1096;-27
2022/03/21 05:31:40;;;;;;;;;;;;;;;24.76;15.12;102582.28;5017512;28;667;-27
2022/03/21 05:36:50;;;;;;;;;;;;;;;24.74;15.28;102578.91;5004696;28;668;-26
2022/03/21 05:39:16;;;;;;;;;;;;;;;24.78;15.28;102578.53;4998575;28;815;-25
2022/03/21 05:41:41;;;;;;;;;;;;;;;24.73;15.31;102577.16;4998359;28;914;-26
2022/03/21 05:44:08;;;;;;;;;;;;;;;24.75;15.32;102581.47;5006310;28;1164;-28
2022/03/21 05:46:33;;;;;;;;;;;;;;;25.30;15.11;102578.00;5013851;28;1112;-26
2022/03/21 05:48:59;;;;;;;;;;;;;;;25.39;15.07;102579.06;5003420;28;1002;-26
2022/03/21 05:51:29;;;;;;;;;;;;;;;25.24;15.27;102583.88;5001399;28;849;-27
2022/03/21 05:53:55;;;;;;;;;;;;;;;25.35;15.27;102582.16;4998293;28;1964;-26
2022/03/21 05:56:21;;;;;;;;;;;;;;;25.39;15.31;102594.41;4998693;28;790;-25
2022/03/21 05:58:46;;;;;;;;;;;;;;;25.36;15.38;102587.41;5005339;28;869;-28
2022/03/21 06:01:12;;;;;;;;;;;;;;;25.50;15.29;102590.81;5012523;28;1022;-27
2022/03/21 06:03:41;;;;;;;;;;;;;;;25.58;15.50;102600.94;5001786;28;1093;-25
2022/03/21 06:06:06;;;;;;;;;;;;;;;25.53;15.40;102594.09;5013238;28;1295;-26
2022/03/21 06:08:32;;;;;;;;;;;;;;;25.54;15.28;102582.31;5013279;28;1310;-29
2022/03/21 06:11:08;;;;;;;;;;;;;;;25.68;15.27;102583.06;5013769;28;1089;-27
2022/03/21 06:13:34;;;;;;;;;;;;;;;25.49;15.30;102562.16;5006730;28;1906;-27
2022/03/21 06:16:03;;;;;;;;;;;;;;;25.60;15.61;102582.81;5014159;28;884;-25
2022/03/21 06:18:35;;;;;;;;;;;;;;;25.56;15.75;102582.19;5015615;28;1386;-28
2022/03/21 06:21:00;;;;;;;;;;;;;;;25.77;15.58;102573.34;5006412;28;819;-26
2022/03/21 06:23:26;;;;;;;;;;;;;;;25.76;15.55;102583.25;5004857;28;837;-27
2022/03/21 06:25:53;;;;;;;;;;;;;;;25.81;15.35;102585.56;5004382;28;746;-29
2022/03/21 06:28:19;;;;;;;;;;;;;;;25.89;15.27;102584.94;5003221;28;830;-26
2022/03/21 06:30:44;;;;;;;;;;;;;;;25.83;15.46;102589.00;4998257;28;734;-28
2022/03/21 06:33:09;;;;;;;;;;;;;;;25.80;15.48;102592.81;5009371;28;1959;-26
2022/03/21 06:35:35;;;;;;;;;;;;;;;26.12;15.46;102596.47;5001630;28;1224;-26
2022/03/21 06:38:00;;;;;;;;;;;;;;;25.86;15.40;102586.03;5013502;28;897;-26
2022/03/21 06:40:26;;;;;;;;;;;;;;;25.98;15.37;102596.75;5003247;28;785;-25
2022/03/21 06:42:52;;;;;;;;;;;;;;;26.09;15.43;102596.69;4998079;28;842;-27
2022/03/21 06:45:17;;;;;;;;;;;;;;;26.16;15.34;102587.09;5003004;28;778;-26
2022/03/21 06:47:42;;;;;;;;;;;;;;;26.03;15.28;102600.78;4997794;28;766;-25
2022/03/21 06:50:08;;;;;;;;;;;;;;;26.08;15.10;102600.41;5003940;28;792;-25
2022/03/21 06:52:38;;;;;;;;;;;;;;;26.15;15.59;102595.34;4997726;28;1959;-27
2022/03/21 06:55:05;;;;;;;;;;;;;;;26.17;15.50;102599.59;5010433;28;794;-25
2022/03/21 06:57:30;;;;;;;;;;;;;;;26.34;15.38;102602.72;5011984;28;824;-28
2022/03/21 06:59:56;;;;;;;;;;;;;;;26.18;15.06;102597.75;5003869;28;920;-28
2022/03/21 07:02:23;;;;;;;;;;;;;;;26.09;15.43;102609.34;5004475;28;1215;-26
2022/03/21 07:04:48;;;;;;;;;;;;;;;26.13;15.11;102602.69;5013765;28;1134;-26
2022/03/21 07:07:13;;;;;;;;;;;;;;;26.51;15.29;102598.56;5013599;28;1099;-26
2022/03/21 07:09:39;;;;;;;;;;;;;;;26.62;15.24;102599.47;5016577;28;823;-30
2022/03/21 07:12:04;;;;;;;;;;;;;;;26.47;14.71;102604.38;5015272;28;909;-25
2022/03/21 07:14:30;;;;;;;;;;;;;;;26.32;14.81;102601.97;5008655;28;1895;-27
2022/03/21 07:16:55;;;;;;;;;;;;;;;26.37;15.17;102597.09;5005534;28;838;-26
2022/03/21 07:19:20;;;;;;;;;;;;;;;26.23;15.50;102597.38;4996945;28;833;-26
2022/03/21 07:21:46;;;;;;;;;;;;;;;26.77;15.21;102606.25;4997657;28;805;-29
2022/03/21 07:24:11;;;;;;;;;;;;;;;26.61;15.18;102600.47;4997084;28;928;-26
2022/03/21 07:26:38;;;;;;;;;;;;;;;26.34;15.00;102604.59;4996839;28;779;-27
2022/03/21 07:29:04;;;;;;;;;;;;;;;26.38;15.16;102600.63;5002958;28;889;-26
2022/03/21 07:31:30;;;;;;;;;;;;;;;26.54;15.36;102605.56;4998365;28;1159;-26
2022/03/21 07:33:56;;;;;;;;;;;;;;;26.62;15.00;102604.88;5006602;28;1902;-30
2022/03/21 07:36:21;;;;;;;;;;;;;;;26.33;15.11;102594.75;4997012;28;830;-29
2022/03/21 07:38:47;;;;;;;;;;;;;;;26.31;15.40;102597.56;5009409;28;966;-29
2022/03/21 07:41:12;;;;;;;;;;;;;;;26.35;15.51;102588.25;5012632;28;817;-27
2022/03/21 07:43:37;;;;;;;;;;;;;;;26.76;14.89;102587.44;5012121;28;873;-28
2022/03/21 07:48:48;;;;;;;;;;;;;;;26.71;14.94;102597.81;5000356;28;774;-27
2022/03/21 07:51:14;;;;;;;;;;;;;;;26.58;15.00;102593.50;5000695;28;866;-28
2022/03/21 07:53:40;;;;;;;;;;;;;;;26.38;15.09;102588.00;5006860;28;1989;-29
2022/03/21 07:56:05;;;;;;;;;;;;;;;25.93;15.80;102594.47;5002291;28;1026;-26
2022/03/21 07:58:33;;;;;;;;;;;;;;;26.14;15.38;102589.06;5013630;28;1305;-28
2022/03/21 08:01:01;;;;;;;;;;;;;;;26.13;15.15;102578.41;5015753;28;1049;-29
2022/03/21 08:03:26;;;;;;;;;;;;;;;26.20;15.35;102582.31;5003933;28;1164;-28
2022/03/21 08:05:52;;;;;;;;;;;;;;;26.47;15.14;102585.47;5012343;28;1367;-27
2022/03/21 08:08:17;;;;;;;;;;;;;;;26.22;15.53;102566.84;5015779;28;1040;-32
2022/03/21 08:10:43;;;;;;;;;;;;;;;26.19;15.48;102579.75;5016535;28;1255;-29
2022/03/21 08:13:13;;;;;;;;;;;;;;;26.10;15.51;102582.25;5017408;28;1894;-31
2022/03/21 08:15:38;;;;;;;;;;;;;;;26.02;15.33;102569.44;5012543;28;1799;-27
2022/03/21 08:18:04;;;;;;;;;;;;;;;26.03;15.51;102572.97;5005268;28;895;-27
2022/03/21 08:20:33;;;;;;;;;;;;;;;26.24;14.96;102574.81;5006693;28;1085;-27
2022/03/21 08:25:34;;;;;;;;;;;;;;;26.16;15.37;102581.72;5349528;23;6883;-28
2022/03/21 08:27:59;;;;;;;;;;;;;;;25.98;15.39;102577.88;5007081;28;1065;-27
2022/03/21 08:30:25;;;;;;;;;;;;;;;25.96;15.14;102563.72;4999671;28;931;-27
2022/03/21 08:32:50;;;;;;;;;;;;;;;25.93;15.24;102578.28;5003505;28;1962;-27
2022/03/21 08:35:18;;;;;;;;;;;;;;;26.15;15.12;102573.75;5002476;28;1143;-28
2022/03/21 08:37:44;;;;;;;;;;;;;;;26.07;14.95;102566.34;4999659;28;904;-28
2022/03/21 08:40:10;;;;;;;;;;;;;;;26.02;15.23;102572.13;4999575;28;857;-28
2022/03/21 08:42:35;;;;;;;;;;;;;;;26.15;15.26;102561.13;4999881;28;838;-27
2022/03/21 08:45:00;;;;;;;;;;;;;;;26.08;15.24;102554.53;5004544;28;789;-28
2022/03/21 08:47:26;;;;;;;;;;;;;;;26.27;14.97;102567.31;4999330;28;755;-28
2022/03/21 08:49:51;;;;;;;;;;;;;;;26.15;15.16;102558.44;4999032;28;833;-28
2022/03/21 08:52:17;;;;;;;;;;;;;;;26.15;15.31;102560.28;4999300;28;827;-28
2022/03/21 08:54:42;;;;;;;;;;;;;;;26.31;14.98;102554.41;4999263;28;1914;-28
2022/03/21 08:57:10;;;;;;;;;;;;;;;26.25;14.89;102554.94;5004671;28;885;-28
2022/03/21 08:59:35;;;;;;;;;;;;;;;26.16;14.91;102564.66;5001288;28;880;-28
2022/03/21 09:02:00;;;;;;;;;;;;;;;26.35;14.83;102550.50;4998931;28;825;-28
2022/03/21 09:04:26;;;;;;;;;;;;;;;26.22;14.87;102544.41;4999787;28;822;-28
2022/03/21 09:06:51;;;;;;;;;;;;;;;26.28;15.11;102546.56;4999315;28;841;-28
2022/03/21 09:09:18;;;;;;;;;;;;;;;26.31;15.10;102540.91;4999821;28;935;-28
2022/03/21 09:11:43;;;;;;;;;;;;;;;26.31;15.17;102546.28;4999482;28;750;-28
2022/03/21 09:14:09;;;;;;;;;;;;;;;26.15;14.23;102554.88;4999763;28;1906;-28
2022/03/21 09:16:34;;;;;;;;;;;;;;;26.04;14.26;102548.56;5003256;28;1050;-27
2022/03/21 09:18:59;;;;;;;;;;;;;;;26.18;15.02;102554.59;5010606;28;1009;-28
2022/03/21 09:21:25;;;;;;;;;;;;;;;25.92;12.08;102549.63;4998966;28;832;-28
2022/03/21 09:23:50;;;;;;;;;;;;;;;25.33;11.55;102560.72;4998882;28;943;-28
2022/03/21 09:26:16;;;;;;;;;;;;;;;25.06;10.24;102557.47;5003001;28;1276;-27
2022/03/21 09:28:43;;;;;;;;;;;;;;;24.88;9.94;102567.00;4998511;28;1239;-28
2022/03/21 09:31:09;;;;;;;;;;;;;;;24.79;9.55;102550.63;4998477;28;904;-27
2022/03/21 09:33:36;;;;;;;;;;;;;;;24.78;9.18;102565.06;4998461;28;1910;-28
2022/03/21 09:36:01;;;;;;;;;;;;;;;24.91;8.85;102546.13;4999432;28;904;-28
2022/03/21 09:38:26;;;;;;;;;;;;;;;25.01;9.60;102546.22;4998442;28;853;-27
2022/03/21 09:40:52;;;;;;;;;;;;;;;25.03;9.06;102551.47;4999190;28;754;-27
2022/03/21 09:43:17;;;;;;;;;;;;;;;25.06;9.40;102532.38;5004928;28;873;-28
2022/03/21 09:45:42;;;;;;;;;;;;;;;25.37;10.01;102526.31;5017257;28;1440;-28
2022/03/21 09:48:17;;;;;;;;;;;;;;;25.51;11.59;102547.56;5007096;28;909;-28
2022/03/21 09:50:44;;;;;;;;;;;;;;;25.59;12.36;102533.44;4997526;28;1403;-28
2022/03/21 09:53:10;;;;;;;;;;;;;;;25.76;12.53;102521.25;5016987;28;1902;-28
2022/03/21 09:55:36;;;;;;;;;;;;;;;25.91;12.63;102529.88;5017476;28;857;-28
2022/03/21 09:58:02;;;;;;;;;;;;;;;25.76;12.83;102521.25;5005305;28;1215;-28
2022/03/21 10:00:27;;;;;;;;;;;;;;;25.86;12.97;102532.13;4996005;28;845;-27
2022/03/21 10:02:53;;;;;;;;;;;;;;;26.34;13.33;102537.97;4998861;28;901;-25
2022/03/21 10:05:34;;;;;;;;;;;;;;;26.25;14.17;102519.88;4998036;28;853;-26
2022/03/21 10:08:09;;;;;;;;;;;;;;;25.88;15.27;102522.06;5010736;28;876;-27
2022/03/21 10:10:35;;;;;;;;;;;;;;;25.64;15.39;102512.38;5016628;28;844;-26
2022/03/21 10:13:00;;;;;;;;;;;;;;;25.21;15.54;102440.56;5004278;28;1910;-27
2022/03/21 10:15:28;;;;;;;;;;;;;;;25.72;15.68;102519.84;5015529;28;1151;-25
2022/03/21 10:18:23;;;;;;;;;;;;;;;25.73;15.73;102515.28;5016565;28;830;-26
2022/03/21 10:20:48;;;;;;;;;;;;;;;25.96;15.80;102504.38;5005217;28;1249;-26
2022/03/21 10:23:14;;;;;;;;;;;;;;;26.04;14.78;102504.56;4997347;28;820;-25
2022/03/21 10:25:40;;;;;;;;;;;;;;;26.21;14.70;102488.75;4997316;28;1149;-24
2022/03/21 10:28:05;;;;;;;;;;;;;;;25.79;12.79;102495.91;5002218;28;923;-25
2022/03/21 10:30:31;;;;;;;;;;;;;;;25.25;12.04;102496.72;4997586;28;1212;-24
2022/03/21 10:32:57;;;;;;;;;;;;;;;25.12;11.11;102483.44;4999473;28;1922;-26
2022/03/21 10:35:23;;;;;;;;;;;;;;;25.57;12.44;102495.00;4996559;28;719;-28
2022/03/21 10:37:58;;;;;;;;;;;;;;;25.69;16.96;102493.16;4996863;28;745;-28
2022/03/21 10:40:33;;;;;;;;;;;;;;;25.90;20.57;102500.38;4997434;28;890;-27
2022/03/21 10:43:05;;;;;;;;;;;;;;;25.96;18.11;102501.69;5000395;28;856;-26
2022/03/21 10:45:34;;;;;;;;;;;;;;;25.72;15.60;102498.28;4996830;28;916;-27
2022/03/21 10:47:59;;;;;;;;;;;;;;;25.74;14.25;102476.56;4998440;28;1568;-26
2022/03/21 10:50:28;;;;;;;;;;;;;;;26.11;15.00;102472.53;5005611;28;762;-26
2022/03/21 10:53:06;;;;;;;;;;;;;;;26.45;15.43;102474.97;4999133;28;1906;-26
2022/03/21 10:55:32;;;;;;;;;;;;;;;26.59;15.50;102471.03;5010532;28;812;-26
2022/03/21 10:57:57;;;;;;;;;;;;;;;26.66;15.20;102465.94;5010111;28;884;-26
2022/03/21 11:00:23;;;;;;;;;;;;;;;26.90;15.08;102462.88;4996913;28;937;-26
2022/03/21 11:02:49;;;;;;;;;;;;;;;26.94;14.84;102463.47;4997812;28;819;-26
2022/03/21 11:05:15;;;;;;;;;;;;;;;27.02;14.62;102469.03;5000018;28;822;-26
2022/03/21 11:07:41;;;;;;;;;;;;;;;27.08;14.90;102462.22;4995700;28;1109;-26
2022/03/21 11:10:06;;;;;;;;;;;;;;;27.01;14.81;102461.91;4996292;28;1008;-26
2022/03/21 11:12:31;;;;;;;;;;;;;;;27.04;14.75;102454.53;4997020;28;1963;-26
2022/03/21 11:14:57;;;;;;;;;;;;;;;27.01;14.95;102451.13;4996649;28;863;-26
2022/03/21 11:17:22;;;;;;;;;;;;;;;27.17;14.97;102444.31;4997159;28;1049;-26
2022/03/21 11:19:47;;;;;;;;;;;;;;;27.21;14.98;102451.13;5015627;28;1244;-26
2022/03/21 11:22:13;;;;;;;;;;;;;;;27.28;14.72;102440.59;5007010;28;1216;-26
2022/03/21 11:24:39;;;;;;;;;;;;;;;27.20;14.79;102429.66;5015618;28;1044;-26
2022/03/21 11:27:16;;;;;;;;;;;;;;;27.36;14.81;102424.50;5015024;28;829;-26
2022/03/21 11:30:17;;;;;;;;;;;;;;;27.23;14.80;102422.13;5009025;28;842;-26
2022/03/21 11:33:01;;;;;;;;;;;;;;;27.06;15.06;102426.38;5029663;28;1914;-26
2022/03/21 11:35:28;;;;;;;;;;;;;;;27.28;15.11;102426.25;5000226;28;893;-26
2022/03/21 11:37:55;;;;;;;;;;;;;;;27.28;14.92;102413.56;4997191;28;789;-26
2022/03/21 11:40:33;;;;;;;;;;;;;;;27.23;14.79;102405.91;4996457;28;822;-26
2022/03/21 11:43:22;;;;;;;;;;;;;;;27.28;15.04;102408.16;5005274;28;841;-26
2022/03/21 11:45:53;;;;;;;;;;;;;;;27.46;14.99;102410.16;5015349;28;753;-26
2022/03/21 11:48:18;;;;;;;;;;;;;;;27.09;15.15;102414.44;5008906;28;1192;-26
2022/03/21 11:50:47;;;;;;;;;;;;;;;27.08;15.02;102410.03;5001829;28;923;-26
2022/03/21 11:53:13;;;;;;;;;;;;;;;26.98;15.05;102401.88;4996598;28;1894;-26
2022/03/21 11:55:41;;;;;;;;;;;;;;;27.12;15.07;102403.34;4998795;28;875;-26
2022/03/21 11:58:22;;;;;;;;;;;;;;;27.23;15.06;102402.34;5004787;28;874;-26
2022/03/21 12:01:14;;;;;;;;;;;;;;;27.09;15.09;102400.94;5014965;28;825;-26
2022/03/21 12:03:41;;;;;;;;;;;;;;;27.20;15.08;102406.19;5010223;28;1178;-26
2022/03/21 12:06:23;;;;;;;;;;;;;;;27.32;14.69;102389.81;4996233;28;810;-26
2022/03/21 12:08:55;;;;;;;;;;;;;;;27.17;14.83;102387.56;5002021;28;848;-26
2022/03/21 12:11:39;;;;;;;;;;;;;;;27.22;14.80;102390.69;5004890;28;1097;-26
2022/03/21 12:14:23;;;;;;;;;;;;;;;27.06;14.82;102385.03;4996150;28;1902;-26
2022/03/21 12:17:08;;;;;;;;;;;;;;;27.09;15.09;102387.44;5009779;28;786;-26
2022/03/21 12:19:46;;;;;;;;;;;;;;;27.05;15.10;102380.59;5007094;28;1521;-26
2022/03/21 12:22:26;;;;;;;;;;;;;;;27.05;14.99;102394.09;5012571;28;782;-25
2022/03/21 12:24:52;;;;;;;;;;;;;;;27.07;15.31;102384.88;5015144;28;1013;-27
2022/03/21 12:27:29;;;;;;;;;;;;;;;27.18;14.90;102386.56;5018618;28;908;-27
2022/03/21 12:30:10;;;;;;;;;;;;;;;27.41;14.74;102377.31;5012905;28;853;-26
2022/03/21 12:32:45;;;;;;;;;;;;;;;27.61;14.42;102378.94;5016053;28;1965;-27
2022/03/21 12:35:11;;;;;;;;;;;;;;;27.74;14.47;102381.34;5014379;28;809;-27
2022/03/21 12:37:38;;;;;;;;;;;;;;;27.86;14.49;102384.72;5017098;28;1291;-26
2022/03/21 12:40:03;;;;;;;;;;;;;;;27.82;14.25;102388.75;5018738;28;737;-27
2022/03/21 12:42:29;;;;;;;;;;;;;;;27.73;14.60;102376.94;5014371;28;1137;-26
2022/03/21 12:44:54;;;;;;;;;;;;;;;27.80;14.34;102377.22;4999539;28;999;-26
2022/03/21 12:47:21;;;;;;;;;;;;;;;27.73;14.77;102385.06;4999535;28;921;-25
2022/03/21 12:49:47;;;;;;;;;;;;;;;27.60;14.70;102379.97;4999615;28;766;-25
2022/03/21 12:52:12;;;;;;;;;;;;;;;27.66;14.83;102381.19;4999426;28;807;-25
2022/03/21 12:54:47;;;;;;;;;;;;;;;27.66;14.87;102377.66;4998475;28;1914;-25
2022/03/21 12:57:13;;;;;;;;;;;;;;;27.79;14.68;102375.53;4999472;28;868;-25
2022/03/21 12:59:38;;;;;;;;;;;;;;;27.69;14.65;102370.16;5004058;28;825;-25
2022/03/21 13:02:04;;;;;;;;;;;;;;;27.91;14.68;102369.91;4999775;28;845;-25
2022/03/21 13:12:40;;;;;;;;;;;;;;;28.05;14.26;102357.75;5002209;28;1894;-25
2022/03/21 13:15:06;;;;;;;;;;;;;;;27.98;14.30;102360.19;5018205;28;845;-25
2022/03/21 13:18:01;;;;;;;;;;;;;;;28.14;14.35;102364.97;5018198;28;884;-25
2022/03/21 13:20:29;;;;;;;;;;;;;;;27.93;14.40;102357.06;5009543;28;1196;-25
2022/03/21 13:22:55;;;;;;;;;;;;;;;28.07;14.38;102353.03;5007403;28;1258;-25